Time,TemperatureF,DewpointF,PressureIn,WindDirection,WindDirectionDegrees,WindSpeedMPH,WindSpeedGustMPH,Humidity,HourlyPrecipIn,Conditions,Clouds,dailyrainin,SoftwareType,DateUTC
2013-06-06 00:04:00,69.2,59.0,29.77,ENE,74,0.0,-999.0,71,-99.99,,,0.00,weatherlink.com 1.10,2013-06-06 05:04:00,
2013-06-06 00:19:00,68.1,60.0,29.78,ENE,69,0.0,-999.0,74,-99.99,,,0.00,weatherlink.com 1.10,2013-06-06 05:19:00,
2013-06-06 00:34:00,67.0,60.0,29.77,NNW,348,4.0,-999.0,77,-99.99,,,0.00,weatherlink.com 1.10,2013-06-06 05:34:00,
2013-06-06 00:49:00,65.7,58.0,29.77,NNW,348,4.0,-999.0,77,-99.99,,,0.00,weatherlink.com 1.10,2013-06-06 05:49:00,
2013-06-06 01:04:00,64.8,57.0,29.77,North,5,2.0,-999.0,77,-99.99,,,0.00,weatherlink.com 1.10,2013-06-06 06:04:00,
2013-06-06 01:19:00,64.0,57.0,29.76,North,5,3.0,-999.0,78,-99.99,,,0.00,weatherlink.com 1.10,2013-06-06 06:19:00,
2013-06-06 01:34:00,63.3,56.0,29.76,North,5,0.0,-999.0,77,-99.99,,,0.00,weatherlink.com 1.10,2013-06-06 06:34:00,
2013-06-06 01:49:00,63.0,55.0,29.75,North,10,4.0,-999.0,75,-99.99,,,0.00,weatherlink.com 1.10,2013-06-06 06:49:00,
2013-06-06 02:04:00,62.8,55.0,29.75,North,5,4.0,-999.0,75,-99.99,,,0.00,weatherlink.com 1.10,2013-06-06 07:04:00,
2013-06-06 02:19:00,62.4,54.0,29.74,North,360,0.0,-999.0,74,-99.99,,,0.00,weatherlink.com 1.10,2013-06-06 07:19:00,
2013-06-06 02:34:00,62.0,54.0,29.74,NNE,20,2.0,-999.0,75,-99.99,,,0.00,weatherlink.com 1.10,2013-06-06 07:34:00,
2013-06-06 02:49:00,61.6,54.0,29.74,NNE,16,1.0,-999.0,76,-99.99,,,0.00,weatherlink.com 1.10,2013-06-06 07:49:00,
2013-06-06 03:04:00,61.2,54.0,29.73,NNE,16,0.0,-999.0,77,-99.99,,,0.00,weatherlink.com 1.10,2013-06-06 08:04:00,
2013-06-06 03:19:00,61.0,54.0,29.73,NNE,26,3.0,-999.0,78,-99.99,,,0.00,weatherlink.com 1.10,2013-06-06 08:19:00,
2013-06-06 03:34:00,60.7,54.0,29.73,NNE,19,1.0,-999.0,79,-99.99,,,0.00,weatherlink.com 1.10,2013-06-06 08:34:00,
2013-06-06 03:49:00,60.6,54.0,29.73,NNE,20,2.0,-999.0,80,-99.99,,,0.00,weatherlink.com 1.10,2013-06-06 08:49:00,
2013-06-06 04:04:00,60.7,54.0,29.73,NNE,13,1.0,-999.0,79,-99.99,,,0.00,weatherlink.com 1.10,2013-06-06 09:04:00,
2013-06-06 04:19:00,60.7,55.0,29.72,NNE,13,0.0,-999.0,80,-99.99,,,0.00,weatherlink.com 1.10,2013-06-06 09:19:00,
2013-06-06 04:34:00,60.7,55.0,29.73,NNE,12,0.0,-999.0,80,-99.99,,,0.00,weatherlink.com 1.10,2013-06-06 09:34:00,
2013-06-06 04:49:00,60.4,55.0,29.73,North,11,0.0,-999.0,81,-99.99,,,0.00,weatherlink.com 1.10,2013-06-06 09:49:00,
2013-06-06 05:04:00,60.3,55.0,29.73,North,10,0.0,-999.0,82,-99.99,,,0.00,weatherlink.com 1.10,2013-06-06 10:04:00,
2013-06-06 05:19:00,60.3,55.0,29.73,North,11,0.0,-999.0,82,-99.99,,,0.00,weatherlink.com 1.10,2013-06-06 10:19:00,
2013-06-06 05:34:00,60.3,55.0,29.72,North,5,0.0,-999.0,82,-99.99,,,0.00,weatherlink.com 1.10,2013-06-06 10:34:00,
2013-06-06 05:49:00,60.3,55.0,29.73,North,5,0.0,-999.0,83,-99.99,,,0.00,weatherlink.com 1.10,2013-06-06 10:49:00,
2013-06-06 06:04:00,60.3,55.0,29.73,North,9,0.0,-999.0,83,-99.99,,,0.00,weatherlink.com 1.10,2013-06-06 11:04:00,
2013-06-06 06:19:00,60.4,55.0,29.74,North,9,2.0,-999.0,83,-99.99,,,0.00,weatherlink.com 1.10,2013-06-06 11:19:00,
2013-06-06 06:34:00,60.5,55.0,29.73,North,9,0.0,-999.0,83,-99.99,,,0.00,weatherlink.com 1.10,2013-06-06 11:34:00,
2013-06-06 06:49:00,60.7,56.0,29.74,North,9,0.0,-999.0,83,-99.99,,,0.00,weatherlink.com 1.10,2013-06-06 11:49:00,
2013-06-06 07:04:00,60.8,56.0,29.75,North,9,0.0,-999.0,83,-99.99,,,0.00,weatherlink.com 1.10,2013-06-06 12:04:00,
2013-06-06 07:19:00,61.2,56.0,29.74,North,9,0.0,-999.0,83,-99.99,,,0.00,weatherlink.com 1.10,2013-06-06 12:19:00,
2013-06-06 07:34:00,61.7,57.0,29.75,North,9,0.0,-999.0,83,-99.99,,,0.00,weatherlink.com 1.10,2013-06-06 12:34:00,
2013-06-06 07:49:00,62.4,57.0,29.75,North,9,0.0,-999.0,83,-99.99,,,0.00,weatherlink.com 1.10,2013-06-06 12:49:00,
2013-06-06 08:04:00,62.6,57.0,29.75,North,9,0.0,-999.0,81,-99.99,,,0.00,weatherlink.com 1.10,2013-06-06 13:04:00,
2013-06-06 08:19:00,62.6,56.0,29.75,North,9,0.0,-999.0,80,-99.99,,,0.00,weatherlink.com 1.10,2013-06-06 13:19:00,
2013-06-06 08:34:00,62.9,57.0,29.75,North,5,1.0,-999.0,81,-99.99,,,0.00,weatherlink.com 1.10,2013-06-06 13:34:00,
2013-06-06 08:49:00,63.0,57.0,29.75,North,5,0.0,-999.0,80,-99.99,,,0.00,weatherlink.com 1.10,2013-06-06 13:49:00,
2013-06-06 09:04:00,63.3,56.0,29.76,North,11,1.0,-999.0,78,-99.99,,,0.00,weatherlink.com 1.10,2013-06-06 14:04:00,
2013-06-06 09:19:00,63.6,57.0,29.76,North,355,4.0,-999.0,78,-99.99,,,0.00,weatherlink.com 1.10,2013-06-06 14:19:00,
2013-06-06 09:34:00,64.4,56.0,29.76,NNW,335,6.0,-999.0,73,-99.99,,,0.00,weatherlink.com 1.10,2013-06-06 14:34:00,
2013-06-06 09:49:00,65.6,56.0,29.75,NE,47,3.0,-999.0,72,-99.99,,,0.00,weatherlink.com 1.10,2013-06-06 14:49:00,
2013-06-06 10:04:00,64.9,56.0,29.76,North,360,2.0,-999.0,73,-99.99,,,0.00,weatherlink.com 1.10,2013-06-06 15:04:00,
2013-06-06 10:19:00,65.2,56.0,29.76,North,355,5.0,-999.0,71,-99.99,,,0.00,weatherlink.com 1.10,2013-06-06 15:19:00,
2013-06-06 10:34:00,65.1,55.0,29.75,NNW,347,2.0,-999.0,69,-99.99,,,0.00,weatherlink.com 1.10,2013-06-06 15:34:00,
2013-06-06 10:49:00,65.1,55.0,29.75,North,5,3.0,-999.0,70,-99.99,,,0.00,weatherlink.com 1.10,2013-06-06 15:49:00,
2013-06-06 11:04:00,65.4,55.0,29.75,North,11,0.0,-999.0,69,-99.99,,,0.00,weatherlink.com 1.10,2013-06-06 16:04:00,
2013-06-06 11:19:00,65.7,56.0,29.75,NNE,16,2.0,-999.0,71,-99.99,,,0.00,weatherlink.com 1.10,2013-06-06 16:19:00,
2013-06-06 11:34:00,66.4,57.0,29.74,North,355,0.0,-999.0,72,-99.99,,,0.00,weatherlink.com 1.10,2013-06-06 16:34:00,
2013-06-06 11:49:00,67.9,57.0,29.74,NNE,18,1.0,-999.0,68,-99.99,,,0.00,weatherlink.com 1.10,2013-06-06 16:49:00,
2013-06-06 12:04:00,69.0,57.0,29.74,North,9,1.0,-999.0,66,-99.99,,,0.00,weatherlink.com 1.10,2013-06-06 17:04:00,
2013-06-06 12:19:00,69.1,57.0,29.74,North,351,1.0,-999.0,66,-99.99,,,0.00,weatherlink.com 1.10,2013-06-06 17:19:00,
2013-06-06 12:34:00,70.2,59.0,29.74,North,5,3.0,-999.0,67,-99.99,,,0.00,weatherlink.com 1.10,2013-06-06 17:34:00,
2013-06-06 12:49:00,71.1,58.0,29.74,North,5,0.0,-999.0,64,-99.99,,,0.00,weatherlink.com 1.10,2013-06-06 17:49:00,
2013-06-06 13:04:00,70.9,58.0,29.75,North,5,0.0,-999.0,64,-99.99,,,0.00,weatherlink.com 1.10,2013-06-06 18:04:00,
2013-06-06 13:19:00,71.1,59.0,29.74,North,360,3.0,-999.0,65,-99.99,,,0.00,weatherlink.com 1.10,2013-06-06 18:19:00,
2013-06-06 13:34:00,71.4,59.0,29.75,NNW,348,3.0,-999.0,64,-99.99,,,0.00,weatherlink.com 1.10,2013-06-06 18:34:00,
2013-06-06 13:49:00,71.6,59.0,29.74,NNW,345,5.0,-999.0,65,-99.99,,,0.00,weatherlink.com 1.10,2013-06-06 18:49:00,
2013-06-06 14:04:00,70.9,59.0,29.74,NNW,348,0.0,-999.0,67,-99.99,,,0.00,weatherlink.com 1.10,2013-06-06 19:04:00,
2013-06-06 14:19:00,70.7,60.0,29.74,North,350,0.0,-999.0,69,-99.99,,,0.00,weatherlink.com 1.10,2013-06-06 19:19:00,
2013-06-06 14:34:00,71.6,60.0,29.74,North,351,3.0,-999.0,67,-99.99,,,0.00,weatherlink.com 1.10,2013-06-06 19:34:00,
2013-06-06 14:49:00,72.5,60.0,29.74,North,355,1.0,-999.0,66,-99.99,,,0.00,weatherlink.com 1.10,2013-06-06 19:49:00,
2013-06-06 15:04:00,72.9,61.0,29.74,North,355,0.0,-999.0,67,-99.99,,,0.00,weatherlink.com 1.10,2013-06-06 20:04:00,
2013-06-06 15:19:00,73.1,61.0,29.75,North,350,0.0,-999.0,65,-99.99,,,0.00,weatherlink.com 1.10,2013-06-06 20:19:00,
2013-06-06 15:34:00,72.6,60.0,29.75,North,355,0.0,-999.0,65,-99.99,,,0.00,weatherlink.com 1.10,2013-06-06 20:34:00,
2013-06-06 15:49:00,72.2,60.0,29.75,North,355,2.0,-999.0,66,-99.99,,,0.00,weatherlink.com 1.10,2013-06-06 20:49:00,
2013-06-06 16:04:00,71.7,59.0,29.74,North,355,0.0,-999.0,64,-99.99,,,0.00,weatherlink.com 1.10,2013-06-06 21:04:00,
2013-06-06 16:19:00,71.7,59.0,29.75,North,355,0.0,-999.0,65,-99.99,,,0.00,weatherlink.com 1.10,2013-06-06 21:19:00,
2013-06-06 16:34:00,71.6,60.0,29.74,North,355,0.0,-999.0,68,-99.99,,,0.00,weatherlink.com 1.10,2013-06-06 21:34:00,
2013-06-06 16:49:00,71.7,61.0,29.75,North,355,0.0,-999.0,68,-99.99,,,0.00,weatherlink.com 1.10,2013-06-06 21:49:00,
2013-06-06 17:04:00,71.2,62.0,29.75,NNW,343,0.0,-999.0,73,-99.99,,,0.00,weatherlink.com 1.10,2013-06-06 22:04:00,
2013-06-06 17:19:00,70.3,62.0,29.75,NNW,333,0.0,-999.0,75,-99.99,,,0.00,weatherlink.com 1.10,2013-06-06 22:19:00,
2013-06-06 17:34:00,69.7,62.0,29.75,NW,325,2.0,-999.0,76,-99.99,,,0.00,weatherlink.com 1.10,2013-06-06 22:34:00,
2013-06-06 17:49:00,69.9,62.0,29.75,NW,325,2.0,-999.0,76,-99.99,,,0.00,weatherlink.com 1.10,2013-06-06 22:49:00,
2013-06-06 18:04:00,69.7,62.0,29.75,North,350,0.0,-999.0,76,-99.99,,,0.00,weatherlink.com 1.10,2013-06-06 23:04:00,
2013-06-06 18:19:00,69.3,62.0,29.74,North,350,0.0,-999.0,77,-99.99,,,0.00,weatherlink.com 1.10,2013-06-06 23:19:00,
2013-06-06 18:34:00,69.1,62.0,29.74,NNW,343,0.0,-999.0,77,-99.99,,,0.00,weatherlink.com 1.10,2013-06-06 23:34:00,
2013-06-06 18:49:00,68.8,62.0,29.74,NNW,342,0.0,-999.0,78,-99.99,,,0.00,weatherlink.com 1.10,2013-06-06 23:49:00,
2013-06-06 19:04:00,68.6,61.0,29.74,NNW,348,1.0,-999.0,77,-99.99,,,0.00,weatherlink.com 1.10,2013-06-07 00:04:00,
2013-06-06 19:19:00,68.6,61.0,29.74,North,351,3.0,-999.0,77,-99.99,,,0.00,weatherlink.com 1.10,2013-06-07 00:19:00,
2013-06-06 19:34:00,68.6,61.0,29.74,North,355,1.0,-999.0,77,-99.99,,,0.00,weatherlink.com 1.10,2013-06-07 00:34:00,
2013-06-06 19:49:00,68.5,61.0,29.74,North,355,0.0,-999.0,78,-99.99,,,0.00,weatherlink.com 1.10,2013-06-07 00:49:00,
2013-06-06 20:04:00,68.2,61.0,29.74,North,355,0.0,-999.0,78,-99.99,,,0.00,weatherlink.com 1.10,2013-06-07 01:04:00,
2013-06-06 20:19:00,68.1,61.0,29.75,North,355,0.0,-999.0,78,-99.99,,,0.00,weatherlink.com 1.10,2013-06-07 01:19:00,
2013-06-06 20:34:00,68.0,61.0,29.75,North,355,1.0,-999.0,78,-99.99,,,0.00,weatherlink.com 1.10,2013-06-07 01:34:00,
2013-06-06 20:49:00,67.6,61.0,29.75,North,355,0.0,-999.0,78,-99.99,,,0.00,weatherlink.com 1.10,2013-06-07 01:49:00,
2013-06-06 21:04:00,67.2,58.0,29.75,North,355,2.0,-999.0,72,-99.99,,,0.00,weatherlink.com 1.10,2013-06-07 02:04:00,
2013-06-06 21:19:00,66.6,55.0,29.76,North,5,4.0,-999.0,67,-99.99,,,0.00,weatherlink.com 1.10,2013-06-07 02:19:00,
2013-06-06 21:34:00,65.5,55.0,29.77,North,5,0.0,-999.0,68,-99.99,,,0.00,weatherlink.com 1.10,2013-06-07 02:34:00,
2013-06-06 21:49:00,64.5,53.0,29.78,NNW,345,1.0,-999.0,67,-99.99,,,0.00,weatherlink.com 1.10,2013-06-07 02:49:00,
2013-06-06 22:04:00,63.7,52.0,29.78,North,355,5.0,-999.0,67,-99.99,,,0.00,weatherlink.com 1.10,2013-06-07 03:04:00,
2013-06-06 22:19:00,63.0,52.0,29.79,North,355,3.0,-999.0,67,-99.99,,,0.00,weatherlink.com 1.10,2013-06-07 03:19:00,
2013-06-06 22:34:00,62.4,52.0,29.79,North,355,4.0,-999.0,69,-99.99,,,0.00,weatherlink.com 1.10,2013-06-07 03:34:00,
2013-06-06 22:49:00,61.9,52.0,29.79,NNW,347,3.0,-999.0,70,-99.99,,,0.00,weatherlink.com 1.10,2013-06-07 03:49:00,
2013-06-06 23:04:00,61.5,52.0,29.79,NNW,347,3.0,-999.0,70,-99.99,,,0.00,weatherlink.com 1.10,2013-06-07 04:04:00,
2013-06-06 23:19:00,61.0,51.0,29.79,North,360,0.0,-999.0,70,-99.99,,,0.00,weatherlink.com 1.10,2013-06-07 04:19:00,
2013-06-06 23:34:00,60.6,51.0,29.78,North,355,1.0,-999.0,71,-99.99,,,0.00,weatherlink.com 1.10,2013-06-07 04:34:00,
2013-06-06 23:49:00,60.2,52.0,29.78,North,355,0.0,-999.0,73,-99.99,,,0.00,weatherlink.com 1.10,2013-06-07 04:49:00,